sensor_id;sensor_type;location;lat;lon;timestamp;pressure;altitude;pressure_sealevel;temperature;humidity
64739;BME280;51175;51.186;0.276;2024-01-30T00:00:05;101891.22;;;10.76;95.51
64739;BME280;51175;51.186;0.276;2024-01-30T00:00:35;101887.53;;;10.77;95.65
64739;BME280;51175;51.186;0.276;2024-01-30T00:01:06;101898.09;;;10.77;95.36
64739;BME280;51175;51.186;0.276;2024-01-30T00:01:36;101893.03;;;10.76;95.48
64739;BME280;51175;51.186;0.276;2024-01-30T00:02:06;101887.53;;;10.77;95.68
64739;BME280;51175;51.186;0.276;2024-01-30T00:02:37;101895.22;;;10.79;95.63
64739;BME280;51175;51.186;0.276;2024-01-30T00:03:07;101892.59;;;10.79;95.54
64739;BME280;51175;51.186;0.276;2024-01-30T00:03:37;101892.38;;;10.80;95.44
64739;BME280;51175;51.186;0.276;2024-01-30T00:04:08;101891.56;;;10.80;95.56
64739;BME280;51175;51.186;0.276;2024-01-30T00:04:38;101895.00;;;10.80;95.61
64739;BME280;51175;51.186;0.276;2024-01-30T00:05:08;101887.91;;;10.81;95.25
64739;BME280;51175;51.186;0.276;2024-01-30T00:05:39;101886.25;;;10.80;95.64
64739;BME280;51175;51.186;0.276;2024-01-30T00:06:11;101889.94;;;10.79;95.54
64739;BME280;51175;51.186;0.276;2024-01-30T00:06:41;101888.91;;;10.80;95.69
64739;BME280;51175;51.186;0.276;2024-01-30T00:07:12;101885.47;;;10.79;95.32
64739;BME280;51175;51.186;0.276;2024-01-30T00:07:43;101887.91;;;10.81;95.53
64739;BME280;51175;51.186;0.276;2024-01-30T00:08:13;101891.31;;;10.82;95.47
64739;BME280;51175;51.186;0.276;2024-01-30T00:08:43;101890.53;;;10.81;95.41
64739;BME280;51175;51.186;0.276;2024-01-30T00:09:16;101887.66;;;10.83;95.47
64739;BME280;51175;51.186;0.276;2024-01-30T00:09:47;101890.31;;;10.83;95.40
64739;BME280;51175;51.186;0.276;2024-01-30T00:10:18;101879.75;;;10.83;95.50
64739;BME280;51175;51.186;0.276;2024-01-30T00:10:49;101887.66;;;10.83;95.64
64739;BME280;51175;51.186;0.276;2024-01-30T00:11:19;101881.56;;;10.82;95.40
64739;BME280;51175;51.186;0.276;2024-01-30T00:11:50;101882.38;;;10.83;95.63
64739;BME280;51175;51.186;0.276;2024-01-30T00:12:21;101888.47;;;10.83;95.62
64739;BME280;51175;51.186;0.276;2024-01-30T00:12:51;101883.16;;;10.83;95.48
64739;BME280;51175;51.186;0.276;2024-01-30T00:13:22;101887.44;;;10.84;95.60
64739;BME280;51175;51.186;0.276;2024-01-30T00:13:53;101885.59;;;10.85;95.44
64739;BME280;51175;51.186;0.276;2024-01-30T00:14:23;101887.44;;;10.84;95.60
64739;BME280;51175;51.186;0.276;2024-01-30T00:14:53;101882.94;;;10.85;95.61
64739;BME280;51175;51.186;0.276;2024-01-30T00:15:24;101884.00;;;10.84;95.40
64739;BME280;51175;51.186;0.276;2024-01-30T00:15:54;101893.50;;;10.85;95.57
64739;BME280;51175;51.186;0.276;2024-01-30T00:16:25;101889.84;;;10.86;95.21
64739;BME280;51175;51.186;0.276;2024-01-30T00:16:55;101878.69;;;10.84;95.60
64739;BME280;51175;51.186;0.276;2024-01-30T00:17:26;101882.94;;;10.85;95.31
64739;BME280;51175;51.186;0.276;2024-01-30T00:17:56;101878.47;;;10.85;95.51
64739;BME280;51175;51.186;0.276;2024-01-30T00:18:26;101876.06;;;10.84;95.40
64739;BME280;51175;51.186;0.276;2024-01-30T00:18:57;101876.88;;;10.84;95.55
64739;BME280;51175;51.186;0.276;2024-01-30T00:19:27;101883.75;;;10.85;95.58
64739;BME280;51175;51.186;0.276;2024-01-30T00:19:58;101878.25;;;10.87;95.90
64739;BME280;51175;51.186;0.276;2024-01-30T00:20:28;101874.00;;;10.86;95.64
64739;BME280;51175;51.186;0.276;2024-01-30T00:20:58;101874.78;;;10.86;95.68
64739;BME280;51175;51.186;0.276;2024-01-30T00:21:29;101876.41;;;10.87;95.46
64739;BME280;51175;51.186;0.276;2024-01-30T00:21:59;101878.25;;;10.87;95.35
64739;BME280;51175;51.186;0.276;2024-01-30T00:22:29;101867.66;;;10.87;95.45
64739;BME280;51175;51.186;0.276;2024-01-30T00:23:00;101873.78;;;10.87;95.50
64739;BME280;51175;51.186;0.276;2024-01-30T00:23:31;101872.72;;;10.88;95.65
64739;BME280;51175;51.186;0.276;2024-01-30T00:24:02;101874.56;;;10.88;95.29
64739;BME280;51175;51.186;0.276;2024-01-30T00:24:32;101865.63;;;10.89;95.62
64739;BME280;51175;51.186;0.276;2024-01-30T00:25:02;101869.28;;;10.88;95.68
64739;BME280;51175;51.186;0.276;2024-01-30T00:25:33;101868.25;;;10.89;95.40
64739;BME280;51175;51.186;0.276;2024-01-30T00:26:03;101864.81;;;10.88;95.65
64739;BME280;51175;51.186;0.276;2024-01-30T00:26:35;101862.16;;;10.88;95.61
64739;BME280;51175;51.186;0.276;2024-01-30T00:27:05;101869.03;;;10.89;95.33
64739;BME280;51175;51.186;0.276;2024-01-30T00:27:36;101859.50;;;10.88;95.45
64739;BME280;51175;51.186;0.276;2024-01-30T00:28:06;101863.75;;;10.89;95.55
64739;BME280;51175;51.186;0.276;2024-01-30T00:28:37;101863.19;;;10.87;95.65
64739;BME280;51175;51.186;0.276;2024-01-30T00:29:08;101868.25;;;10.89;95.58
64739;BME280;51175;51.186;0.276;2024-01-30T00:29:38;101871.91;;;10.88;95.60
64739;BME280;51175;51.186;0.276;2024-01-30T00:30:09;101863.75;;;10.89;95.57
64739;BME280;51175;51.186;0.276;2024-01-30T00:30:40;101861.94;;;10.90;95.39
64739;BME280;51175;51.186;0.276;2024-01-30T00:31:10;101867.22;;;10.90;95.44
64739;BME280;51175;51.186;0.276;2024-01-30T00:31:43;101873.31;;;10.90;95.36
64739;BME280;51175;51.186;0.276;2024-01-30T00:32:13;101871.47;;;10.91;95.66
64739;BME280;51175;51.186;0.276;2024-01-30T00:32:43;101874.91;;;10.91;95.51
64739;BME280;51175;51.186;0.276;2024-01-30T00:33:14;101871.47;;;10.91;95.51
64739;BME280;51175;51.186;0.276;2024-01-30T00:33:45;101865.94;;;10.92;95.63
64739;BME280;51175;51.186;0.276;2024-01-30T00:34:15;101874.69;;;10.93;95.61
64739;BME280;51175;51.186;0.276;2024-01-30T00:34:46;101862.28;;;10.93;95.64
64739;BME280;51175;51.186;0.276;2024-01-30T00:35:16;101869.19;;;10.95;95.39
64739;BME280;51175;51.186;0.276;2024-01-30T00:35:46;101861.47;;;10.93;95.37
64739;BME280;51175;51.186;0.276;2024-01-30T00:36:17;101862.53;;;10.92;95.42
64739;BME280;51175;51.186;0.276;2024-01-30T00:36:47;101869.41;;;10.93;95.57
64739;BME280;51175;51.186;0.276;2024-01-30T00:37:18;101866.75;;;10.93;95.47
64739;BME280;51175;51.186;0.276;2024-01-30T00:37:48;101873.66;;;10.94;95.27
64739;BME280;51175;51.186;0.276;2024-01-30T00:38:19;101871.00;;;10.94;95.65
64739;BME280;51175;51.186;0.276;2024-01-30T00:38:49;101875.28;;;10.95;95.34
64739;BME280;51175;51.186;0.276;2024-01-30T00:39:19;101862.28;;;10.93;95.73
64739;BME280;51175;51.186;0.276;2024-01-30T00:39:50;101867.81;;;10.92;95.54
64739;BME280;51175;51.186;0.276;2024-01-30T00:40:20;101862.28;;;10.93;95.58
64739;BME280;51175;51.186;0.276;2024-01-30T00:40:51;101863.88;;;10.95;95.61
64739;BME280;51175;51.186;0.276;2024-01-30T00:41:21;101861.25;;;10.95;95.65
64739;BME280;51175;51.186;0.276;2024-01-30T00:41:52;101873.41;;;10.96;95.58
64739;BME280;51175;51.186;0.276;2024-01-30T00:42:22;101870.22;;;10.93;95.61
64739;BME280;51175;51.186;0.276;2024-01-30T00:42:54;101869.19;;;10.95;95.74
64739;BME280;51175;51.186;0.276;2024-01-30T00:43:24;101871.81;;;10.95;95.51
64739;BME280;51175;51.186;0.276;2024-01-30T00:43:57;101868.13;;;10.96;95.68
64739;BME280;51175;51.186;0.276;2024-01-30T00:44:28;101863.66;;;10.96;95.43
64739;BME280;51175;51.186;0.276;2024-01-30T00:44:58;101869.75;;;10.97;95.61
64739;BME280;51175;51.186;0.276;2024-01-30T00:45:28;101872.41;;;10.97;95.59
64739;BME280;51175;51.186;0.276;2024-01-30T00:45:59;101875.06;;;10.97;95.47
64739;BME280;51175;51.186;0.276;2024-01-30T00:46:29;101866.06;;;10.98;95.61
64739;BME280;51175;51.186;0.276;2024-01-30T00:47:00;101865.25;;;10.97;95.87
64739;BME280;51175;51.186;0.276;2024-01-30T00:47:30;101853.69;;;10.98;95.49
64739;BME280;51175;51.186;0.276;2024-01-30T00:48:03;101868.50;;;10.99;95.70
64739;BME280;51175;51.186;0.276;2024-01-30T00:48:34;101864.25;;;10.98;95.56
64739;BME280;51175;51.186;0.276;2024-01-30T00:49:04;101862.63;;;10.97;95.78
64739;BME280;51175;51.186;0.276;2024-01-30T00:49:36;101863.44;;;10.98;95.60
64739;BME280;51175;51.186;0.276;2024-01-30T00:50:06;101863.22;;;10.99;95.61
64739;BME280;51175;51.186;0.276;2024-01-30T00:50:37;101865.84;;;10.99;95.73
64739;BME280;51175;51.186;0.276;2024-01-30T00:51:07;101864.25;;;10.98;95.73
64739;BME280;51175;51.186;0.276;2024-01-30T00:51:38;101868.50;;;10.99;95.72
64739;BME280;51175;51.186;0.276;2024-01-30T00:52:08;101863.22;;;10.99;95.69
64739;BME280;51175;51.186;0.276;2024-01-30T00:52:38;101870.31;;;10.99;95.72
64739;BME280;51175;51.186;0.276;2024-01-30T00:53:10;101860.78;;;10.98;95.51
64739;BME280;51175;51.186;0.276;2024-01-30T00:53:41;101858.16;;;10.98;95.48
64739;BME280;51175;51.186;0.276;2024-01-30T00:54:11;101865.03;;;10.99;95.58
64739;BME280;51175;51.186;0.276;2024-01-30T00:54:42;101869.31;;;11.00;95.63
64739;BME280;51175;51.186;0.276;2024-01-30T00:55:13;101863.22;;;10.99;95.65
64739;BME280;51175;51.186;0.276;2024-01-30T00:55:44;101865.03;;;10.99;95.65
64739;BME280;51175;51.186;0.276;2024-01-30T00:56:14;101869.31;;;11.00;95.53
64739;BME280;51175;51.186;0.276;2024-01-30T00:56:48;101864.84;;;11.00;95.55
64739;BME280;51175;51.186;0.276;2024-01-30T00:57:18;101866.66;;;11.00;95.60
64739;BME280;51175;51.186;0.276;2024-01-30T00:57:49;101866.66;;;11.00;95.47
64739;BME280;51175;51.186;0.276;2024-01-30T00:58:19;101859.75;;;10.99;95.64
64739;BME280;51175;51.186;0.276;2024-01-30T00:58:49;101862.19;;;11.00;95.75
64739;BME280;51175;51.186;0.276;2024-01-30T00:59:20;101861.16;;;11.01;95.57
64739;BME280;51175;51.186;0.276;2024-01-30T00:59:50;101866.44;;;11.01;95.56
64739;BME280;51175;51.186;0.276;2024-01-30T01:00:20;101861.97;;;11.02;95.72
64739;BME280;51175;51.186;0.276;2024-01-30T01:00:51;101864.59;;;11.02;95.72
64739;BME280;51175;51.186;0.276;2024-01-30T01:01:22;101862.75;;;11.02;95.62
64739;BME280;51175;51.186;0.276;2024-01-30T01:01:52;101860.91;;;11.03;95.73
64739;BME280;51175;51.186;0.276;2024-01-30T01:02:22;101852.19;;;11.02;95.72
64739;BME280;51175;51.186;0.276;2024-01-30T01:02:53;101859.88;;;11.04;95.61
64739;BME280;51175;51.186;0.276;2024-01-30T01:03:23;101863.56;;;11.03;95.74
64739;BME280;51175;51.186;0.276;2024-01-30T01:03:53;101853.00;;;11.03;95.49
64739;BME280;51175;51.186;0.276;2024-01-30T01:04:24;101859.09;;;11.03;95.76
64739;BME280;51175;51.186;0.276;2024-01-30T01:04:54;101863.34;;;11.04;95.85
64739;BME280;51175;51.186;0.276;2024-01-30T01:05:25;101861.50;;;11.05;95.63
64739;BME280;51175;51.186;0.276;2024-01-30T01:05:55;101862.28;;;11.05;95.71
64739;BME280;51175;51.186;0.276;2024-01-30T01:06:25;101857.00;;;11.05;95.44
64739;BME280;51175;51.186;0.276;2024-01-30T01:06:56;101861.50;;;11.05;95.71
64739;BME280;51175;51.186;0.276;2024-01-30T01:07:26;101863.09;;;11.06;95.54
64739;BME280;51175;51.186;0.276;2024-01-30T01:07:56;101855.19;;;11.06;95.55
64739;BME280;51175;51.186;0.276;2024-01-30T01:08:27;101852.75;;;11.04;96.32
64739;BME280;51175;51.186;0.276;2024-01-30T01:08:57;101855.19;;;11.06;95.64
64739;BME280;51175;51.186;0.276;2024-01-30T01:09:27;101857.81;;;11.06;95.79
64739;BME280;51175;51.186;0.276;2024-01-30T01:09:57;101834.84;;;11.07;95.74
64739;BME280;51175;51.186;0.276;2024-01-30T01:10:28;101853.91;;;11.09;95.71
64739;BME280;51175;51.186;0.276;2024-01-30T01:10:58;101851.25;;;11.09;95.72
64739;BME280;51175;51.186;0.276;2024-01-30T01:11:29;101845.97;;;11.09;95.69
64739;BME280;51175;51.186;0.276;2024-01-30T01:11:59;101858.19;;;11.10;95.56
64739;BME280;51175;51.186;0.276;2024-01-30T01:12:29;101851.50;;;11.07;95.56
64739;BME280;51175;51.186;0.276;2024-01-30T01:13:00;101845.97;;;11.09;95.93
64739;BME280;51175;51.186;0.276;2024-01-30T01:13:30;101851.84;;;11.11;95.71
64739;BME280;51175;51.186;0.276;2024-01-30T01:14:00;101845.75;;;11.10;95.67
64739;BME280;51175;51.186;0.276;2024-01-30T01:14:31;101847.38;;;11.11;95.61
64739;BME280;51175;51.186;0.276;2024-01-30T01:15:01;101848.97;;;11.12;95.76
64739;BME280;51175;51.186;0.276;2024-01-30T01:15:32;101845.75;;;11.10;95.75
64739;BME280;51175;51.186;0.276;2024-01-30T01:16:03;101848.97;;;11.12;95.72
64739;BME280;51175;51.186;0.276;2024-01-30T01:16:34;101840.00;;;11.13;95.69
64739;BME280;51175;51.186;0.276;2024-01-30T01:17:04;101849.78;;;11.13;95.93
64739;BME280;51175;51.186;0.276;2024-01-30T01:17:35;101851.63;;;11.12;95.83
64739;BME280;51175;51.186;0.276;2024-01-30T01:18:05;101847.94;;;11.13;95.74
64739;BME280;51175;51.186;0.276;2024-01-30T01:18:36;101846.09;;;11.14;95.68
64739;BME280;51175;51.186;0.276;2024-01-30T01:19:06;101851.63;;;11.12;95.69
64739;BME280;51175;51.186;0.276;2024-01-30T01:19:36;101850.81;;;11.12;95.59
64739;BME280;51175;51.186;0.276;2024-01-30T01:20:07;101845.50;;;11.12;95.65
64739;BME280;51175;51.186;0.276;2024-01-30T01:20:38;101856.09;;;11.12;95.75
64739;BME280;51175;51.186;0.276;2024-01-30T01:21:08;101850.00;;;11.11;95.53
64739;BME280;51175;51.186;0.276;2024-01-30T01:21:38;101851.63;;;11.12;95.76
64739;BME280;51175;51.186;0.276;2024-01-30T01:22:09;101853.22;;;11.13;95.55
64739;BME280;51175;51.186;0.276;2024-01-30T01:22:39;101854.84;;;11.14;95.60
64739;BME280;51175;51.186;0.276;2024-01-30T01:23:10;101853.22;;;11.13;95.81
64739;BME280;51175;51.186;0.276;2024-01-30T01:23:40;101859.31;;;11.14;95.67
64739;BME280;51175;51.186;0.276;2024-01-30T01:24:11;101852.19;;;11.14;95.64
64739;BME280;51175;51.186;0.276;2024-01-30T01:24:41;101852.19;;;11.14;95.59
64739;BME280;51175;51.186;0.276;2024-01-30T01:25:11;101856.44;;;11.15;95.80
64739;BME280;51175;51.186;0.276;2024-01-30T01:25:42;101856.44;;;11.15;95.65
64739;BME280;51175;51.186;0.276;2024-01-30T01:26:12;101852.75;;;11.16;95.49
64739;BME280;51175;51.186;0.276;2024-01-30T01:26:43;101850.09;;;11.16;95.85
64739;BME280;51175;51.186;0.276;2024-01-30T01:27:13;101859.09;;;11.15;95.83
64739;BME280;51175;51.186;0.276;2024-01-30T01:27:43;101854.84;;;11.14;95.87
64739;BME280;51175;51.186;0.276;2024-01-30T01:28:21;101844.28;;;11.14;95.64
64739;BME280;51175;51.186;0.276;2024-01-30T01:28:51;101841.84;;;11.13;95.75
64739;BME280;51175;51.186;0.276;2024-01-30T01:29:22;101848.75;;;11.14;95.65
64739;BME280;51175;51.186;0.276;2024-01-30T01:29:58;101850.56;;;11.13;95.87
64739;BME280;51175;51.186;0.276;2024-01-30T01:30:28;101855.84;;;11.13;95.79
64739;BME280;51175;51.186;0.276;2024-01-30T01:30:59;101857.72;;;11.13;95.90
64739;BME280;51175;51.186;0.276;2024-01-30T01:31:38;101848.16;;;11.12;95.92
64739;BME280;51175;51.186;0.276;2024-01-30T01:32:14;101843.69;;;11.12;95.80
64739;BME280;51175;51.186;0.276;2024-01-30T01:32:44;101839.44;;;11.11;95.82
64739;BME280;51175;51.186;0.276;2024-01-30T01:33:20;101849.19;;;11.11;95.91
64739;BME280;51175;51.186;0.276;2024-01-30T01:33:51;101845.50;;;11.12;95.77
64739;BME280;51175;51.186;0.276;2024-01-30T01:34:21;101848.38;;;11.10;95.80
64739;BME280;51175;51.186;0.276;2024-01-30T01:34:53;101848.63;;;11.09;95.49
64739;BME280;51175;51.186;0.276;2024-01-30T01:35:24;101852.06;;;11.09;95.89
64739;BME280;51175;51.186;0.276;2024-01-30T01:35:57;101864.47;;;11.09;95.89
64739;BME280;51175;51.186;0.276;2024-01-30T01:36:28;101856.53;;;11.09;95.58
64739;BME280;51175;51.186;0.276;2024-01-30T01:36:58;101849.66;;;11.08;96.02
64739;BME280;51175;51.186;0.276;2024-01-30T01:37:28;101854.94;;;11.08;95.57
64739;BME280;51175;51.186;0.276;2024-01-30T01:37:58;101851.50;;;11.07;95.90
64739;BME280;51175;51.186;0.276;2024-01-30T01:38:30;101861.84;;;11.09;95.94
64739;BME280;51175;51.186;0.276;2024-01-30T01:39:00;101854.94;;;11.08;95.81
64739;BME280;51175;51.186;0.276;2024-01-30T01:39:31;101859.19;;;11.09;95.84
64739;BME280;51175;51.186;0.276;2024-01-30T01:40:01;101849.66;;;11.08;95.76
64739;BME280;51175;51.186;0.276;2024-01-30T01:40:31;101849.88;;;11.06;95.64
64739;BME280;51175;51.186;0.276;2024-01-30T01:41:02;101843.78;;;11.05;95.58
64739;BME280;51175;51.186;0.276;2024-01-30T01:41:33;101854.34;;;11.05;95.43
64739;BME280;51175;51.186;0.276;2024-01-30T01:42:03;101855.19;;;11.06;95.75
64739;BME280;51175;51.186;0.276;2024-01-30T01:42:34;101853.56;;;11.05;95.76
64739;BME280;51175;51.186;0.276;2024-01-30T01:43:05;101855.19;;;11.06;95.74
64739;BME280;51175;51.186;0.276;2024-01-30T01:43:36;101856.00;;;11.07;95.62
64739;BME280;51175;51.186;0.276;2024-01-30T01:44:08;101855.19;;;11.06;95.71
64739;BME280;51175;51.186;0.276;2024-01-30T01:44:39;101859.88;;;11.04;95.52
64739;BME280;51175;51.186;0.276;2024-01-30T01:45:09;101859.88;;;11.04;95.58
64739;BME280;51175;51.186;0.276;2024-01-30T01:45:39;101862.75;;;11.02;95.90
64739;BME280;51175;51.186;0.276;2024-01-30T01:46:10;101863.56;;;11.03;95.76
64739;BME280;51175;51.186;0.276;2024-01-30T01:46:40;101862.75;;;11.02;95.52
64739;BME280;51175;51.186;0.276;2024-01-30T01:47:11;101873.31;;;11.02;95.55
64739;BME280;51175;51.186;0.276;2024-01-30T01:47:41;101865.63;;;11.01;95.60
64739;BME280;51175;51.186;0.276;2024-01-30T01:48:12;101865.63;;;11.01;95.49
64739;BME280;51175;51.186;0.276;2024-01-30T01:48:43;101852.63;;;10.99;95.71
64739;BME280;51175;51.186;0.276;2024-01-30T01:49:15;101859.75;;;10.99;95.71
64739;BME280;51175;51.186;0.276;2024-01-30T01:49:45;101866.06;;;10.98;95.57
64739;BME280;51175;51.186;0.276;2024-01-30T01:50:16;101860.78;;;10.98;95.55
64739;BME280;51175;51.186;0.276;2024-01-30T01:50:51;101858.38;;;10.96;95.47
64739;BME280;51175;51.186;0.276;2024-01-30T01:51:24;101859.41;;;10.95;95.38
64739;BME280;51175;51.186;0.276;2024-01-30T01:51:57;101861.25;;;10.95;95.65
64739;BME280;51175;51.186;0.276;2024-01-30T01:52:28;101866.53;;;10.95;95.72
64739;BME280;51175;51.186;0.276;2024-01-30T01:52:58;101860.44;;;10.94;95.37
64739;BME280;51175;51.186;0.276;2024-01-30T01:53:29;101860.44;;;10.94;95.53
64739;BME280;51175;51.186;0.276;2024-01-30T01:54:03;101867.00;;;10.91;95.13
64739;BME280;51175;51.186;0.276;2024-01-30T01:54:33;101860.44;;;10.94;95.51
64739;BME280;51175;51.186;0.276;2024-01-30T01:55:04;101864.94;;;10.93;95.38
64739;BME280;51175;51.186;0.276;2024-01-30T01:55:35;101862.53;;;10.92;95.11
64739;BME280;51175;51.186;0.276;2024-01-30T01:56:06;101854.81;;;10.90;95.16
64739;BME280;51175;51.186;0.276;2024-01-30T01:56:36;101854.00;;;10.90;95.19
64739;BME280;51175;51.186;0.276;2024-01-30T01:57:08;101849.53;;;10.90;94.97
64739;BME280;51175;51.186;0.276;2024-01-30T01:57:39;101853.19;;;10.89;94.84
64739;BME280;51175;51.186;0.276;2024-01-30T01:58:09;101861.69;;;10.91;95.01
64739;BME280;51175;51.186;0.276;2024-01-30T01:58:44;101851.59;;;10.88;95.05
64739;BME280;51175;51.186;0.276;2024-01-30T01:59:17;101854.81;;;10.90;94.66
64739;BME280;51175;51.186;0.276;2024-01-30T01:59:48;101851.34;;;10.90;94.86
64739;BME280;51175;51.186;0.276;2024-01-30T02:00:19;101856.66;;;10.90;94.68
64739;BME280;51175;51.186;0.276;2024-01-30T02:00:50;101850.53;;;10.89;94.64
64739;BME280;51175;51.186;0.276;2024-01-30T02:01:23;101857.69;;;10.89;94.65
64739;BME280;51175;51.186;0.276;2024-01-30T02:01:55;101849.75;;;10.89;94.62
64739;BME280;51175;51.186;0.276;2024-01-30T02:02:26;101866.63;;;10.88;94.69
64739;BME280;51175;51.186;0.276;2024-01-30T02:03:00;101854.47;;;10.87;94.75
64739;BME280;51175;51.186;0.276;2024-01-30T02:03:32;101858.16;;;10.86;94.45
64739;BME280;51175;51.186;0.276;2024-01-30T02:04:04;101855.72;;;10.84;94.39
64739;BME280;51175;51.186;0.276;2024-01-30T02:04:35;101859.16;;;10.85;94.53
64739;BME280;51175;51.186;0.276;2024-01-30T02:05:05;101860.19;;;10.84;94.53
64739;BME280;51175;51.186;0.276;2024-01-30T02:05:36;101861.00;;;10.84;94.27
64739;BME280;51175;51.186;0.276;2024-01-30T02:06:07;101860.19;;;10.84;94.38
64739;BME280;51175;51.186;0.276;2024-01-30T02:06:38;101862.03;;;10.83;94.32
64739;BME280;51175;51.186;0.276;2024-01-30T02:07:09;101869.16;;;10.83;93.98
64739;BME280;51175;51.186;0.276;2024-01-30T02:07:40;101856.75;;;10.83;93.97
64739;BME280;51175;51.186;0.276;2024-01-30T02:08:11;101876.50;;;10.80;94.24
64739;BME280;51175;51.186;0.276;2024-01-30T02:08:41;101869.41;;;10.81;94.04
64739;BME280;51175;51.186;0.276;2024-01-30T02:09:12;101860.66;;;10.80;93.81
64739;BME280;51175;51.186;0.276;2024-01-30T02:09:42;101858.25;;;10.79;93.84
64739;BME280;51175;51.186;0.276;2024-01-30T02:10:13;101863.75;;;10.77;93.85
64739;BME280;51175;51.186;0.276;2024-01-30T02:10:44;101861.09;;;10.77;93.62
64739;BME280;51175;51.186;0.276;2024-01-30T02:11:14;101877.19;;;10.76;93.98
64739;BME280;51175;51.186;0.276;2024-01-30T02:11:46;101869.25;;;10.76;93.87
64739;BME280;51175;51.186;0.276;2024-01-30T02:12:17;101859.97;;;10.73;93.65
64739;BME280;51175;51.186;0.276;2024-01-30T02:12:48;101858.34;;;10.72;93.55
64739;BME280;51175;51.186;0.276;2024-01-30T02:13:18;101865.47;;;10.72;93.65
64739;BME280;51175;51.186;0.276;2024-01-30T02:13:49;101869.34;;;10.69;93.36
64739;BME280;51175;51.186;0.276;2024-01-30T02:14:20;101873.84;;;10.68;93.24
64739;BME280;51175;51.186;0.276;2024-01-30T02:14:50;101870.41;;;10.68;93.31
64739;BME280;51175;51.186;0.276;2024-01-30T02:15:21;101867.16;;;10.66;93.10
64739;BME280;51175;51.186;0.276;2024-01-30T02:15:51;101863.69;;;10.65;93.14
64739;BME280;51175;51.186;0.276;2024-01-30T02:16:22;101853.38;;;10.64;93.02
64739;BME280;51175;51.186;0.276;2024-01-30T02:16:52;101862.31;;;10.63;93.02
64739;BME280;51175;51.186;0.276;2024-01-30T02:17:23;101867.84;;;10.61;92.65
64739;BME280;51175;51.186;0.276;2024-01-30T02:17:54;101846.13;;;10.59;92.82
64739;BME280;51175;51.186;0.276;2024-01-30T02:18:24;101851.41;;;10.59;92.77
64739;BME280;51175;51.186;0.276;2024-01-30T02:18:54;101844.50;;;10.58;92.42
64739;BME280;51175;51.186;0.276;2024-01-30T02:19:25;101848.97;;;10.58;92.53
64739;BME280;51175;51.186;0.276;2024-01-30T02:19:55;101841.50;;;10.54;92.05
64739;BME280;51175;51.186;0.276;2024-01-30T02:20:28;101833.03;;;10.52;92.09
64739;BME280;51175;51.186;0.276;2024-01-30T02:21:04;101840.94;;;10.52;92.01
64739;BME280;51175;51.186;0.276;2024-01-30T02:21:34;101833.25;;;10.51;91.97
64739;BME280;51175;51.186;0.276;2024-01-30T02:22:05;101849.09;;;10.51;91.76
64739;BME280;51175;51.186;0.276;2024-01-30T02:22:36;101849.31;;;10.49;91.67
64739;BME280;51175;51.186;0.276;2024-01-30T02:23:08;101843.22;;;10.49;91.81
64739;BME280;51175;51.186;0.276;2024-01-30T02:23:43;101836.34;;;10.48;91.61
64739;BME280;51175;51.186;0.276;2024-01-30T02:24:14;101847.13;;;10.46;91.78
64739;BME280;51175;51.186;0.276;2024-01-30T02:24:44;101836.56;;;10.46;91.49
64739;BME280;51175;51.186;0.276;2024-01-30T02:25:15;101841.00;;;10.46;91.33
64739;BME280;51175;51.186;0.276;2024-01-30T02:25:45;101828.03;;;10.44;91.43
64739;BME280;51175;51.186;0.276;2024-01-30T02:26:16;101829.84;;;10.43;91.44
64739;BME280;51175;51.186;0.276;2024-01-30T02:26:46;101835.13;;;10.43;91.25
64739;BME280;51175;51.186;0.276;2024-01-30T02:27:16;101833.53;;;10.42;91.09
64739;BME280;51175;51.186;0.276;2024-01-30T02:27:47;101823.19;;;10.41;90.94
64739;BME280;51175;51.186;0.276;2024-01-30T02:28:17;101825.84;;;10.41;91.15
64739;BME280;51175;51.186;0.276;2024-01-30T02:28:47;101834.78;;;10.40;90.88
64739;BME280;51175;51.186;0.276;2024-01-30T02:29:18;101838.44;;;10.39;90.92
64739;BME280;51175;51.186;0.276;2024-01-30T02:29:48;101837.66;;;10.38;90.93
64739;BME280;51175;51.186;0.276;2024-01-30T02:30:18;101843.72;;;10.39;90.95
64739;BME280;51175;51.186;0.276;2024-01-30T02:30:49;101837.66;;;10.38;90.89
64739;BME280;51175;51.186;0.276;2024-01-30T02:31:19;101850.06;;;10.38;90.63
64739;BME280;51175;51.186;0.276;2024-01-30T02:31:49;101843.97;;;10.37;90.47
64739;BME280;51175;51.186;0.276;2024-01-30T02:32:20;101840.75;;;10.35;90.76
64739;BME280;51175;51.186;0.276;2024-01-30T02:32:50;101837.28;;;10.35;90.89
64739;BME280;51175;51.186;0.276;2024-01-30T02:33:21;101841.75;;;10.34;90.39
64739;BME280;51175;51.186;0.276;2024-01-30T02:33:54;101839.13;;;10.34;90.69
64739;BME280;51175;51.186;0.276;2024-01-30T02:34:24;101837.53;;;10.33;90.69
64739;BME280;51175;51.186;0.276;2024-01-30T02:34:54;101840.16;;;10.33;90.55
64739;BME280;51175;51.186;0.276;2024-01-30T02:35:25;101840.16;;;10.33;90.57
64739;BME280;51175;51.186;0.276;2024-01-30T02:35:55;101831.19;;;10.34;90.65
64739;BME280;51175;51.186;0.276;2024-01-30T02:36:25;101839.13;;;10.34;90.64
64739;BME280;51175;51.186;0.276;2024-01-30T02:36:56;101846.47;;;10.32;90.57
64739;BME280;51175;51.186;0.276;2024-01-30T02:37:26;101830.59;;;10.32;90.60
64739;BME280;51175;51.186;0.276;2024-01-30T02:37:57;101815.00;;;10.30;90.71
64739;BME280;51175;51.186;0.276;2024-01-30T02:38:27;101834.28;;;10.31;90.47
64739;BME280;51175;51.186;0.276;2024-01-30T02:38:58;101830.84;;;10.30;90.41
64739;BME280;51175;51.186;0.276;2024-01-30T02:39:29;101823.13;;;10.29;90.43
64739;BME280;51175;51.186;0.276;2024-01-30T02:39:59;101817.84;;;10.29;90.63
64739;BME280;51175;51.186;0.276;2024-01-30T02:40:30;101830.28;;;10.28;90.71
64739;BME280;51175;51.186;0.276;2024-01-30T02:41:01;101831.06;;;10.29;90.74